Reubens, ID

8:43 AM PDT on May 06, 2015 (GMT -0700)
Camas Prairie | | Change Station
CLOSE
Current Station
Personal Weather Station
Location: Reubens, ID
Elevation: 3480 ft
Nearby Weather Stations

Elev 3480 ft 46.35 °N, 116.53 °W | Updated 5 seconds ago

Mostly Cloudy
Mostly Cloudy
45.5 °F
Feels Like 43 °F
N
4.6
Wind Variable Wind from NW
Gusts 4.6 mph

Today
High -- | Low -- °F
--% Chance of Precip.
Yesterday
High -- | Low -- °F
Precip. -- in
5:25 AM 8:01 PM
Waning Gibbous, 93% visible
Pressure 30.01 in
Visibility 10.0 miles
Clouds Scattered Clouds 6000 ft
Overcast 7000 ft
Windchill 43 °F
Dew Point 33 °F
Humidity 62%
Rainfall 0.00 in
Snow Depth Not available.
UV 1 out of 12
Pollen 9.60 out of 12
Air Quality Not available.
Flu Activity Sporadic
METAR KGIC 061535Z AUTO 05005KT 10SM SCT060 OVC070 07/M03 A3001 RMK AO1 T00691027

More Conditions Fewer Conditions

Pressure 30.01 in
Visibility 10.0 miles
Clouds Scattered Clouds 6000 ft
Overcast 7000 ft
Windchill 43 °F
Dew Point 33 °F
Humidity 62%
Rainfall 0.00 in
Snow Depth Not available.
UV 1 out of 12
Pollen 9.60 out of 12
Air Quality Not available.
Flu Activity Sporadic
METAR KGIC 061535Z AUTO 05005KT 10SM SCT060 OVC070 07/M03 A3001 RMK AO1 T00691027

More Conditions Fewer Conditions

10-Day Weather Forecast

Almanac

Astronomy

May. 06, 2015 Rise Set
Actual Time
Civil Twilight
Nautical Twilight
Astronomical Twilight
Moon
Length of Visible Light
Length of Day
Tomorrow will be .
, % of the Moon is Illuminated

Today's Extremes

State Highs State Lows

Community

WunderPhotos

Upload Photos

1,818,938 photos uploaded!

WunderBlogs® & News

Nearby

Air Quality

  Air Quality AQ Index Pollutant
Not available.

Snow Depth

Station Depth Elevation

Earthquake Activity

City Distance Mag. Time & Date
Minimum magnitude displayed is 2.5.

Coastal Water Temperatures

Place Temperature

Stations

Nearby Weather Stations

Station Location Temp. Windchill Dew Point Humidity Wind Precip. Elev Updated Type